PWSweather.com
Personal Weather Stations
Station Observations
REUBENS
Camas Prairie, Reubens, ID 83548

Camas PrairieReubens, ID 83548

Lat: 46.35417, Lon: -116.53167

Elevation: 3480

Station Type: Davis VantagePro 2

http://www.theobrienranch.com/wx/wx.htm

High Low Average
Temperature 37.3°F2.9°F 29.6°F-1.3°F 33.4°F0.8°F
Dew Point 31.4°F-0.3°F 25.5°F-3.6°F 27.7°F-2.4°F
Winds 11.5 mph SSW18.5 mph SSW Calm Calm 4.2 mph 6.8 mph
Wind Gusts 13.8 mph22.2 mph -- 5.1 mph8.2 mph
Humidity 86% 69% 79%
Pressure 29.91 in1012.90 in 29.42 in996.30 in -
Precipitation 0.00 in0.00 in - -
Hour Temp Dew Point Humidity Winds Wind Gusts Pressure Precip Precip Rate Daily Precip Total
12:00 AM 31.6°F-0.2°C 25.9°F-3.4°C 79% 5.8 mph SSE9.3 kmh SSE 6.9 mph11.1 kmh 29.43 in996.6 mb - 0.00 in0.0 mm 0.00 in0.0 mm
12:15 AM 31.7°F-0.2°C 25.9°F-3.4°C 79% 4.6 mph SSE7.4 kmh SSE 5.8 mph9.3 kmh 29.42 in996.3 mb - 0.00 in0.0 mm 0.00 in0.0 mm
12:30 AM 32.0°F0.0°C 26.2°F-3.2°C 79% 3.5 mph SE5.6 kmh SE 3.5 mph5.6 kmh 29.43 in996.6 mb - 0.00 in0.0 mm 0.00 in0.0 mm
12:45 AM 30.8°F-0.7°C 25.7°F-3.5°C 81% Calm Calm -- 29.43 in996.6 mb - 0.00 in0.0 mm 0.00 in0.0 mm
01:00 AM 30.8°F-0.7°C 26.0°F-3.3°C 82% Calm Calm -- 29.44 in997.0 mb - 0.00 in0.0 mm 0.00 in0.0 mm
01:15 AM 31.1°F-0.5°C 26.0°F-3.3°C 81% Calm Calm -- 29.45 in997.3 mb - 0.00 in0.0 mm 0.00 in0.0 mm
01:30 AM 31.2°F-0.4°C 26.1°F-3.3°C 81% Calm Calm -- 29.45 in997.3 mb - 0.00 in0.0 mm 0.00 in0.0 mm
01:45 AM 31.2°F-0.4°C 26.0°F-3.3°C 81% Calm Calm -- 29.46 in997.6 mb - 0.00 in0.0 mm 0.00 in0.0 mm
02:00 AM 31.0°F-0.6°C 25.9°F-3.4°C 81% Calm Calm -- 29.46 in997.6 mb - 0.00 in0.0 mm 0.00 in0.0 mm
02:15 AM 30.3°F-0.9°C 25.8°F-3.4°C 83% Calm Calm -- 29.46 in997.6 mb - 0.00 in0.0 mm 0.00 in0.0 mm
02:30 AM 30.1°F-1.1°C 25.8°F-3.4°C 84% 3.5 mph SE5.6 kmh SE 3.5 mph5.6 kmh 29.47 in998.0 mb - 0.00 in0.0 mm 0.00 in0.0 mm
02:45 AM 30.1°F-1.1°C 25.9°F-3.4°C 84% 4.6 mph SE7.4 kmh SE 4.6 mph7.4 kmh 29.47 in998.0 mb - 0.00 in0.0 mm 0.00 in0.0 mm
03:00 AM 31.1°F-0.5°C 26.0°F-3.3°C 81% Calm Calm -- 29.47 in998.0 mb - 0.00 in0.0 mm 0.00 in0.0 mm
03:15 AM 29.7°F-1.3°C 25.5°F-3.6°C 84% 3.5 mph SSE5.6 kmh SSE 4.6 mph7.4 kmh 29.49 in998.6 mb - 0.00 in0.0 mm 0.00 in0.0 mm
03:30 AM 30.8°F-0.7°C 26.2°F-3.2°C 83% Calm Calm -- 29.48 in998.3 mb - 0.00 in0.0 mm 0.00 in0.0 mm
03:45 AM 30.8°F-0.7°C 26.3°F-3.2°C 83% Calm Calm -- 29.49 in998.6 mb - 0.00 in0.0 mm 0.00 in0.0 mm
04:00 AM 31.5°F-0.3°C 26.6°F-3.0°C 82% Calm Calm -- 29.49 in998.6 mb - 0.00 in0.0 mm 0.00 in0.0 mm
04:15 AM 31.0°F-0.6°C 26.4°F-3.1°C 83% Calm Calm -- 29.49 in998.6 mb - 0.00 in0.0 mm 0.00 in0.0 mm
04:30 AM 31.0°F-0.6°C 26.4°F-3.1°C 83% 3.5 mph SSE5.6 kmh SSE 3.5 mph5.6 kmh 29.50 in999.0 mb - 0.00 in0.0 mm 0.00 in0.0 mm
04:45 AM 31.3°F-0.4°C 26.7°F-2.9°C 83% 3.5 mph SSE5.6 kmh SSE 3.5 mph5.6 kmh 29.50 in999.0 mb - 0.00 in0.0 mm 0.00 in0.0 mm
05:00 AM 31.4°F-0.3°C 26.8°F-2.9°C 83% 3.5 mph SSE5.6 kmh SSE 4.6 mph7.4 kmh 29.50 in999.0 mb - 0.00 in0.0 mm 0.00 in0.0 mm
05:15 AM 31.0°F-0.6°C 26.8°F-2.9°C 84% 9.2 mph SE14.8 kmh SE 11.5 mph18.5 kmh 29.50 in999.0 mb - 0.00 in0.0 mm 0.00 in0.0 mm
05:30 AM 31.2°F-0.4°C 26.9°F-2.8°C 84% 5.8 mph SE9.3 kmh SE 5.8 mph9.3 kmh 29.51 in999.3 mb - 0.00 in0.0 mm 0.00 in0.0 mm
05:45 AM 31.5°F-0.3°C 27.2°F-2.7°C 84% 3.5 mph SE5.6 kmh SE 3.5 mph5.6 kmh 29.50 in999.0 mb - 0.00 in0.0 mm 0.00 in0.0 mm
06:00 AM 30.7°F-0.7°C 26.7°F-2.9°C 85% Calm Calm -- 29.52 in999.7 mb - 0.00 in0.0 mm 0.00 in0.0 mm
06:15 AM 29.8°F-1.2°C 25.8°F-3.4°C 85% Calm Calm -- 29.53 in1000.0 mb - 0.00 in0.0 mm 0.00 in0.0 mm
06:30 AM 30.3°F-0.9°C 26.6°F-3.0°C 86% Calm Calm -- 29.54 in1000.3 mb - 0.00 in0.0 mm 0.00 in0.0 mm
06:45 AM 30.4°F-0.9°C 26.4°F-3.1°C 85% Calm Calm -- 29.54 in1000.3 mb - 0.00 in0.0 mm 0.00 in0.0 mm
07:00 AM 30.2°F-1.0°C 26.5°F-3.1°C 86% Calm Calm -- 29.55 in1000.7 mb - 0.00 in0.0 mm 0.00 in0.0 mm
07:15 AM 29.9°F-1.2°C 25.9°F-3.4°C 85% 3.5 mph SE5.6 kmh SE 3.5 mph5.6 kmh 29.57 in1001.4 mb - 0.00 in0.0 mm 0.00 in0.0 mm
07:30 AM 29.6°F-1.3°C 25.9°F-3.4°C 86% 3.5 mph SE5.6 kmh SE 4.6 mph7.4 kmh 29.58 in1001.7 mb - 0.00 in0.0 mm 0.00 in0.0 mm
07:45 AM 29.9°F-1.2°C 25.9°F-3.4°C 85% 3.5 mph SE5.6 kmh SE 3.5 mph5.6 kmh 29.59 in1002.0 mb - 0.00 in0.0 mm 0.00 in0.0 mm
08:00 AM 29.8°F-1.2°C 26.1°F-3.3°C 86% 3.5 mph SE5.6 kmh SE 3.5 mph5.6 kmh 29.59 in1002.0 mb - 0.00 in0.0 mm 0.00 in0.0 mm
08:15 AM 30.2°F-1.0°C 26.2°F-3.2°C 85% 2.3 mph SE3.7 kmh SE 3.5 mph5.6 kmh 29.59 in1002.0 mb - 0.00 in0.0 mm 0.00 in0.0 mm
08:30 AM 30.8°F-0.7°C 26.5°F-3.1°C 84% 1.2 mph SE1.9 kmh SE 2.3 mph3.7 kmh 29.60 in1002.4 mb - 0.00 in0.0 mm 0.00 in0.0 mm
08:45 AM 30.9°F-0.6°C 26.3°F-3.2°C 83% Calm Calm -- 29.61 in1002.7 mb - 0.00 in0.0 mm 0.00 in0.0 mm
09:00 AM 29.9°F-1.2°C 25.9°F-3.4°C 85% Calm Calm -- 29.61 in1002.7 mb - 0.00 in0.0 mm 0.00 in0.0 mm
09:15 AM 30.3°F-0.9°C 26.4°F-3.1°C 85% 4.6 mph SE7.4 kmh SE 4.6 mph7.4 kmh 29.63 in1003.4 mb - 0.00 in0.0 mm 0.00 in0.0 mm
09:30 AM 30.5°F-0.8°C 26.5°F-3.1°C 85% 4.6 mph SE7.4 kmh SE 4.6 mph7.4 kmh 29.64 in1003.7 mb - 0.00 in0.0 mm 0.00 in0.0 mm
09:45 AM 31.0°F-0.6°C 27.0°F-2.8°C 85% 5.8 mph SE9.3 kmh SE 5.8 mph9.3 kmh 29.65 in1004.1 mb - 0.00 in0.0 mm 0.00 in0.0 mm
10:00 AM 31.3°F-0.4°C 27.3°F-2.6°C 85% 4.6 mph SE7.4 kmh SE 4.6 mph7.4 kmh 29.66 in1004.4 mb - 0.00 in0.0 mm 0.00 in0.0 mm
10:15 AM 31.9°F-0.1°C 27.6°F-2.4°C 84% 2.3 mph SE3.7 kmh SE 3.5 mph5.6 kmh 29.66 in1004.4 mb - 0.00 in0.0 mm 0.00 in0.0 mm
10:30 AM 32.5°F0.3°C 27.9°F-2.3°C 83% Calm Calm -- 29.65 in1004.1 mb - 0.00 in0.0 mm 0.00 in0.0 mm
10:45 AM 32.9°F0.5°C 28.3°F-2.1°C 83% Calm Calm -- 29.66 in1004.4 mb - 0.00 in0.0 mm 0.00 in0.0 mm
11:00 AM 35.3°F1.8°C 29.4°F-1.4°C 79% Calm Calm -- 29.66 in1004.4 mb - 0.00 in0.0 mm 0.00 in0.0 mm
11:15 AM 36.1°F2.3°C 29.0°F-1.7°C 75% Calm Calm -- 29.66 in1004.4 mb - 0.00 in0.0 mm 0.00 in0.0 mm
11:30 AM 36.6°F2.6°C 29.4°F-1.4°C 75% Calm Calm -- 29.66 in1004.4 mb - 0.00 in0.0 mm 0.00 in0.0 mm
11:45 AM 34.5°F1.4°C 28.6°F-1.9°C 79% 2.3 mph SE3.7 kmh SE 3.5 mph5.6 kmh 29.67 in1004.7 mb - 0.00 in0.0 mm 0.00 in0.0 mm
12:00 PM 35.4°F1.9°C 29.6°F-1.3°C 79% Calm Calm -- 29.67 in1004.7 mb - 0.00 in0.0 mm 0.00 in0.0 mm
12:15 PM 36.1°F2.3°C 29.9°F-1.2°C 78% 2.3 mph SE3.7 kmh SE 3.5 mph5.6 kmh 29.67 in1004.7 mb - 0.00 in0.0 mm 0.00 in0.0 mm
12:30 PM 36.4°F2.4°C 31.4°F-0.3°C 82% 2.3 mph SE3.7 kmh SE 3.5 mph5.6 kmh 29.67 in1004.7 mb - 0.00 in0.0 mm 0.00 in0.0 mm
12:45 PM 35.7°F2.1°C 29.8°F-1.2°C 79% 9.2 mph ENE14.8 kmh ENE 10.4 mph16.7 kmh 29.68 in1005.1 mb - 0.00 in0.0 mm 0.00 in0.0 mm
01:00 PM 34.6°F1.4°C 30.0°F-1.1°C 83% 8.1 mph E13.0 kmh E 10.4 mph16.7 kmh 29.68 in1005.1 mb - 0.00 in0.0 mm 0.00 in0.0 mm
01:15 PM 34.9°F1.6°C 29.9°F-1.2°C 82% 6.9 mph E11.1 kmh E 8.1 mph13.0 kmh 29.70 in1005.8 mb - 0.00 in0.0 mm 0.00 in0.0 mm
01:30 PM 35.0°F1.7°C 29.8°F-1.2°C 81% 6.9 mph E11.1 kmh E 6.9 mph11.1 kmh 29.70 in1005.8 mb - 0.00 in0.0 mm 0.00 in0.0 mm
01:45 PM 35.3°F1.8°C 29.8°F-1.2°C 80% 5.8 mph E9.3 kmh E 5.8 mph9.3 kmh 29.71 in1006.1 mb - 0.00 in0.0 mm 0.00 in0.0 mm
02:00 PM 35.8°F2.1°C 29.6°F-1.3°C 78% 6.9 mph E11.1 kmh E 8.1 mph13.0 kmh 29.71 in1006.1 mb - 0.00 in0.0 mm 0.00 in0.0 mm
02:15 PM 36.1°F2.3°C 29.6°F-1.3°C 77% 8.1 mph E13.0 kmh E 9.2 mph14.8 kmh 29.71 in1006.1 mb - 0.00 in0.0 mm 0.00 in0.0 mm
02:30 PM 36.4°F2.4°C 29.6°F-1.3°C 76% 8.1 mph E13.0 kmh E 9.2 mph14.8 kmh 29.72 in1006.4 mb - 0.00 in0.0 mm 0.00 in0.0 mm
02:45 PM 35.8°F2.1°C 29.6°F-1.3°C 78% 3.5 mph E5.6 kmh E 4.6 mph7.4 kmh 29.73 in1006.8 mb - 0.00 in0.0 mm 0.00 in0.0 mm
03:00 PM 36.8°F2.7°C 29.6°F-1.3°C 75% 1.2 mph E1.9 kmh E 3.5 mph5.6 kmh 29.74 in1007.1 mb - 0.00 in0.0 mm 0.00 in0.0 mm
03:15 PM 35.7°F2.1°C 29.2°F-1.6°C 77% 1.2 mph E1.9 kmh E 2.3 mph3.7 kmh 29.75 in1007.5 mb - 0.00 in0.0 mm 0.00 in0.0 mm
03:30 PM 36.8°F2.7°C 28.6°F-1.9°C 72% 4.6 mph S7.4 kmh S 6.9 mph11.1 kmh 29.75 in1007.5 mb - 0.00 in0.0 mm 0.00 in0.0 mm
03:45 PM 37.3°F2.9°C 28.8°F-1.8°C 71% 8.1 mph S13.0 kmh S 10.4 mph16.7 kmh 29.75 in1007.5 mb - 0.00 in0.0 mm 0.00 in0.0 mm
04:00 PM 36.9°F2.7°C 28.7°F-1.8°C 72% 6.9 mph S11.1 kmh S 9.2 mph14.8 kmh 29.76 in1007.8 mb - 0.00 in0.0 mm 0.00 in0.0 mm
04:15 PM 36.3°F2.4°C 28.8°F-1.8°C 74% 10.4 mph SSW16.7 kmh SSW 13.8 mph22.2 kmh 29.77 in1008.1 mb - 0.00 in0.0 mm 0.00 in0.0 mm
04:30 PM 36.6°F2.6°C 28.8°F-1.8°C 73% 11.5 mph SSW18.5 kmh SSW 12.7 mph20.4 kmh 29.77 in1008.1 mb - 0.00 in0.0 mm 0.00 in0.0 mm
04:45 PM 36.4°F2.4°C 28.2°F-2.1°C 72% 8.1 mph S13.0 kmh S 9.2 mph14.8 kmh 29.79 in1008.8 mb - 0.00 in0.0 mm 0.00 in0.0 mm
05:00 PM 35.4°F1.9°C 28.6°F-1.9°C 76% 4.6 mph S7.4 kmh S 5.8 mph9.3 kmh 29.79 in1008.8 mb - 0.00 in0.0 mm 0.00 in0.0 mm
05:15 PM 35.3°F1.8°C 28.5°F-1.9°C 76% 4.6 mph S7.4 kmh S 5.8 mph9.3 kmh 29.80 in1009.1 mb - 0.00 in0.0 mm 0.00 in0.0 mm
05:30 PM 35.4°F1.9°C 28.6°F-1.9°C 76% 5.8 mph S9.3 kmh S 5.8 mph9.3 kmh 29.80 in1009.1 mb - 0.00 in0.0 mm 0.00 in0.0 mm
05:45 PM 35.2°F1.8°C 28.4°F-2.0°C 76% 6.9 mph S11.1 kmh S 6.9 mph11.1 kmh 29.81 in1009.5 mb - 0.00 in0.0 mm 0.00 in0.0 mm
06:00 PM 35.3°F1.8°C 28.5°F-1.9°C 76% 6.9 mph S11.1 kmh S 8.1 mph13.0 kmh 29.82 in1009.8 mb - 0.00 in0.0 mm 0.00 in0.0 mm
06:15 PM 35.2°F1.8°C 28.4°F-2.0°C 76% 4.6 mph S7.4 kmh S 4.6 mph7.4 kmh 29.82 in1009.8 mb - 0.00 in0.0 mm 0.00 in0.0 mm
06:30 PM 35.9°F2.2°C 28.7°F-1.8°C 75% 10.4 mph SSW16.7 kmh SSW 11.5 mph18.5 kmh 29.82 in1009.8 mb - 0.00 in0.0 mm 0.00 in0.0 mm
06:45 PM 35.4°F1.9°C 28.3°F-2.1°C 75% 11.5 mph SW18.5 kmh SW 12.7 mph20.4 kmh 29.83 in1010.2 mb - 0.00 in0.0 mm 0.00 in0.0 mm
07:00 PM 36.2°F2.3°C 28.7°F-1.8°C 74% 8.1 mph SW13.0 kmh SW 10.4 mph16.7 kmh 29.83 in1010.2 mb - 0.00 in0.0 mm 0.00 in0.0 mm
07:15 PM 37.2°F2.9°C 28.3°F-2.1°C 70% 10.4 mph WSW16.7 kmh WSW 12.7 mph20.4 kmh 29.84 in1010.5 mb - 0.00 in0.0 mm 0.00 in0.0 mm
07:30 PM 36.6°F2.6°C 28.5°F-1.9°C 72% 5.8 mph WSW9.3 kmh WSW 6.9 mph11.1 kmh 29.85 in1010.8 mb - 0.00 in0.0 mm 0.00 in0.0 mm
07:45 PM 36.4°F2.4°C 27.9°F-2.3°C 71% 9.2 mph WSW14.8 kmh WSW 10.4 mph16.7 kmh 29.85 in1010.8 mb - 0.00 in0.0 mm 0.00 in0.0 mm
08:00 PM 36.7°F2.6°C 27.5°F-2.5°C 69% 6.9 mph SW11.1 kmh SW 9.2 mph14.8 kmh 29.86 in1011.2 mb - 0.00 in0.0 mm 0.00 in0.0 mm
08:15 PM 36.8°F2.7°C 27.6°F-2.4°C 69% 4.6 mph SSW7.4 kmh SSW 8.1 mph13.0 kmh 29.86 in1011.2 mb - 0.00 in0.0 mm 0.00 in0.0 mm
08:30 PM 36.4°F2.4°C 27.9°F-2.3°C 71% 10.4 mph SW16.7 kmh SW 11.5 mph18.5 kmh 29.87 in1011.5 mb - 0.00 in0.0 mm 0.00 in0.0 mm
08:45 PM 35.4°F1.9°C 27.9°F-2.3°C 74% 11.5 mph SW18.5 kmh SW 12.7 mph20.4 kmh 29.88 in1011.9 mb - 0.00 in0.0 mm 0.00 in0.0 mm
09:00 PM 35.2°F1.8°C 28.1°F-2.2°C 75% 10.4 mph SSW16.7 kmh SSW 12.7 mph20.4 kmh 29.89 in1012.2 mb - 0.00 in0.0 mm 0.00 in0.0 mm
09:15 PM 34.4°F1.3°C 27.9°F-2.3°C 77% 6.9 mph SW11.1 kmh SW 10.4 mph16.7 kmh 29.88 in1011.9 mb - 0.00 in0.0 mm 0.00 in0.0 mm
09:30 PM 34.7°F1.5°C 27.9°F-2.3°C 76% 8.1 mph SSW13.0 kmh SSW 11.5 mph18.5 kmh 29.88 in1011.9 mb - 0.00 in0.0 mm 0.00 in0.0 mm
09:45 PM 34.8°F1.6°C 28.3°F-2.1°C 77% 8.1 mph SSW13.0 kmh SSW 10.4 mph16.7 kmh 29.88 in1011.9 mb - 0.00 in0.0 mm 0.00 in0.0 mm
10:00 PM 34.4°F1.3°C 28.2°F-2.1°C 78% 6.9 mph SSW11.1 kmh SSW 9.2 mph14.8 kmh 29.89 in1012.2 mb - 0.00 in0.0 mm 0.00 in0.0 mm
10:15 PM 34.9°F1.6°C 28.4°F-2.0°C 77% 4.6 mph S7.4 kmh S 5.8 mph9.3 kmh 29.88 in1011.9 mb - 0.00 in0.0 mm 0.00 in0.0 mm
10:30 PM 34.8°F1.6°C 28.0°F-2.2°C 76% 4.6 mph WSW7.4 kmh WSW 5.8 mph9.3 kmh 29.89 in1012.2 mb - 0.00 in0.0 mm 0.00 in0.0 mm
10:45 PM 34.4°F1.3°C 28.2°F-2.1°C 78% 4.6 mph WSW7.4 kmh WSW 4.6 mph7.4 kmh 29.90 in1012.5 mb - 0.00 in0.0 mm 0.00 in0.0 mm
11:00 PM 34.4°F1.3°C 28.6°F-1.9°C 79% Calm Calm -- 29.89 in1012.2 mb - 0.00 in0.0 mm 0.00 in0.0 mm
11:15 PM 33.7°F0.9°C 28.5°F-1.9°C 81% 2.3 mph WSW3.7 kmh WSW 2.3 mph3.7 kmh 29.90 in1012.5 mb - 0.00 in0.0 mm 0.00 in0.0 mm
11:30 PM 32.7°F0.4°C 28.1°F-2.2°C 83% 2.3 mph ESE3.7 kmh ESE 3.5 mph5.6 kmh 29.91 in1012.9 mb - 0.00 in0.0 mm 0.00 in0.0 mm
11:45 PM 32.9°F0.5°C 27.7°F-2.4°C 81% 8.1 mph E13.0 kmh E 9.2 mph14.8 kmh 29.91 in1012.9 mb - 0.00 in0.0 mm 0.00 in0.0 mm